Time;durP1;ratioP1;P1;durP2;ratioP2;P2;SDS_P1;SDS_P2;PMS_P1;PMS_P2;Temp;Humidity;BMP_temperature;BMP_pressure;BME280_temperature;BME280_humidity;BME280_pressure;Samples;Min_cycle;Max_cycle;Signal;HPM_P1;HPM_P2
2022/05/23 00:02:18;;;;;;;7.03;4.90;;;7.70;67.30;;;;;;6275359;22;20613;-82
2022/05/23 00:04:45;;;;;;;7.90;4.70;;;7.60;18.80;;;;;;6275222;22;20592;-83
2022/05/23 00:07:15;;;;;;;7.67;5.10;;;7.60;1.00;;;;;;6275532;22;20214;-84
2022/05/23 00:09:42;;;;;;;9.00;4.80;;;7.60;1.00;;;;;;6275457;22;20258;-84
2022/05/23 00:12:10;;;;;;;6.70;4.77;;;;;;;;;;6275141;22;20163;-83
2022/05/23 00:14:41;;;;;;;7.83;4.47;;;7.50;1.00;;;;;;6275768;22;20160;-82
2022/05/23 00:17:09;;;;;;;8.23;5.30;;;7.40;1.00;;;;;;6277739;22;20152;-82
2022/05/23 00:19:36;;;;;;;8.77;5.67;;;7.40;13.60;;;;;;6277776;22;20183;-82
2022/05/23 00:22:05;;;;;;;10.07;6.20;;;7.50;99.90;;;;;;6277385;22;20167;-84
2022/05/23 00:24:32;;;;;;;8.57;5.63;;;7.60;99.90;;;;;;6277573;22;20160;-84
2022/05/23 00:26:59;;;;;;;7.67;5.77;;;7.50;99.90;;;;;;6277007;22;20186;-82
2022/05/23 00:29:26;;;;;;;8.97;6.47;;;7.40;99.90;;;;;;6276974;22;20191;-84
2022/05/23 00:37:27;;;;;;;7.07;4.60;;;7.50;1.00;;;;;;6277688;22;20764;-83
2022/05/23 00:39:54;;;;;;;6.80;4.47;;;7.20;99.90;;;;;;6277180;22;20242;-84
2022/05/23 00:45:14;;;;;;;5.37;4.37;;;7.10;99.90;;;;;;6277342;22;20574;-82
2022/05/23 00:47:43;;;;;;;7.53;4.70;;;7.10;99.90;;;;;;6277392;22;20160;-83
2022/05/23 00:50:13;;;;;;;6.23;4.27;;;7.10;99.90;;;;;;6277202;22;20238;-83
2022/05/23 00:52:44;;;;;;;7.00;4.70;;;7.10;99.90;;;;;;6277373;22;20148;-82
2022/05/23 00:55:16;;;;;;;6.40;4.90;;;7.10;99.90;;;;;;6277463;22;20152;-83
2022/05/23 00:57:46;;;;;;;7.20;5.40;;;7.10;1.00;;;;;;6277119;22;20514;-84
2022/05/23 01:00:14;;;;;;;5.77;5.17;;;7.10;1.00;;;;;;6277084;22;20168;-82
2022/05/23 01:02:46;;;;;;;6.77;4.53;;;7.10;1.00;;;;;;6277348;22;20528;-83
2022/05/23 01:05:14;;;;;;;8.03;5.03;;;7.10;1.00;;;;;;6276886;22;20152;-84
2022/05/23 01:07:41;;;;;;;6.93;4.47;;;7.10;1.00;;;;;;6276821;22;20163;-82
2022/05/23 01:10:10;;;;;;;6.10;4.67;;;7.10;1.00;;;;;;6277124;22;20179;-83
2022/05/23 01:12:37;;;;;;;7.10;4.97;;;7.10;1.00;;;;;;6277289;22;20170;-82
2022/05/23 01:15:15;;;;;;;6.57;4.53;;;7.00;1.00;;;;;;6277009;22;20163;-82
2022/05/23 01:17:44;;;;;;;6.77;4.30;;;6.90;1.00;;;;;;6277062;22;20298;-82
2022/05/23 01:20:12;;;;;;;6.40;4.17;;;6.90;1.00;;;;;;6277355;22;20168;-82
2022/05/23 01:22:47;;;;;;;6.93;4.50;;;6.90;1.00;;;;;;6277072;22;20163;-82
2022/05/23 01:25:25;;;;;;;7.13;4.30;;;6.90;1.00;;;;;;6276817;22;20582;-82
2022/05/23 01:27:53;;;;;;;7.60;4.63;;;6.90;1.00;;;;;;6276718;22;20152;-82
2022/05/23 01:30:21;;;;;;;6.90;4.67;;;6.90;1.00;;;;;;6276383;22;20641;-83
2022/05/23 01:32:48;;;;;;;6.90;4.50;;;6.90;1.00;;;;;;6277161;22;20167;-82
2022/05/23 01:35:15;;;;;;;9.67;4.67;;;6.90;1.00;;;;;;6276972;22;20221;-82
2022/05/23 01:37:42;;;;;;;5.20;4.33;;;6.90;1.00;;;;;;6276826;22;20221;-83
2022/05/23 01:40:12;;;;;;;8.20;4.77;;;6.80;1.00;;;;;;6276966;22;20171;-82
2022/05/23 01:42:41;;;;;;;5.50;4.20;;;6.70;1.00;;;;;;6276824;22;20160;-83
2022/05/23 01:45:09;;;;;;;6.33;4.43;;;6.70;1.00;;;;;;6276765;22;20217;-82
2022/05/23 01:47:36;;;;;;;6.53;4.37;;;6.70;1.00;;;;;;6276990;22;20224;-83
2022/05/23 01:50:03;;;;;;;5.77;4.30;;;6.80;1.00;;;;;;6276307;22;20213;-82
2022/05/23 01:52:31;;;;;;;5.57;4.13;;;6.70;1.00;;;;;;6276792;22;20163;-82
2022/05/23 01:54:58;;;;;;;6.27;4.73;;;6.70;1.00;;;;;;6277086;22;20163;-83
2022/05/23 01:57:25;;;;;;;6.50;4.73;;;6.70;1.00;;;;;;6277056;22;20164;-82
2022/05/23 02:02:38;;;;;;;5.53;4.37;;;6.70;1.00;;;;;;6255560;22;20159;-83
2022/05/23 02:05:06;;;;;;;4.47;4.00;;;6.70;1.00;;;;;;6276423;22;20163;-82
2022/05/23 02:07:33;;;;;;;4.97;4.00;;;6.50;1.00;;;;;;6276633;22;20163;-83
2022/05/23 02:10:00;;;;;;;6.90;4.53;;;6.50;1.00;;;;;;6276458;22;20187;-82
2022/05/23 02:12:27;;;;;;;6.10;4.97;;;6.50;1.00;;;;;;6276603;22;20168;-83
2022/05/23 02:14:55;;;;;;;8.73;4.80;;;6.50;1.00;;;;;;6276258;22;20520;-83
2022/05/23 02:17:23;;;;;;;5.80;4.80;;;6.50;1.00;;;;;;6276186;22;20170;-83
2022/05/23 02:19:50;;;;;;;7.40;4.93;;;6.50;1.00;;;;;;6276621;22;20192;-83
2022/05/23 02:22:17;;;;;;;7.27;4.53;;;6.50;1.00;;;;;;6276447;22;20279;-82
2022/05/23 02:24:44;;;;;;;6.50;4.70;;;6.50;1.00;;;;;;6276133;22;20162;-84
2022/05/23 02:27:11;;;;;;;6.10;5.17;;;6.50;1.00;;;;;;6276827;22;20213;-83
2022/05/23 02:29:38;;;;;;;6.93;5.37;;;6.60;1.00;;;;;;6276243;22;20187;-82
2022/05/23 02:32:08;;;;;;;7.37;5.20;;;6.70;1.00;;;;;;6276317;22;20164;-82
2022/05/23 02:34:35;;;;;;;7.93;5.23;;;6.70;1.00;;;;;;6275981;22;20163;-83
2022/05/23 02:37:02;;;;;;;7.97;5.70;;;6.70;1.00;;;;;;6276304;22;20229;-82
2022/05/23 02:39:29;;;;;;;8.13;6.10;;;6.80;1.00;;;;;;6275953;22;20219;-83
2022/05/23 02:41:56;;;;;;;7.83;5.93;;;6.80;27.30;;;;;;6276256;22;20167;-83
2022/05/23 02:44:23;;;;;;;7.00;5.57;;;6.80;61.70;;;;;;6275836;22;20221;-83
2022/05/23 02:46:50;;;;;;;6.40;5.53;;;6.90;73.10;;;;;;6276246;22;20163;-84
2022/05/23 02:49:19;;;;;;;7.20;5.77;;;6.90;99.90;;;;;;6275970;22;20220;-82
2022/05/23 02:51:46;;;;;;;6.30;5.10;;;6.90;91.70;;;;;;6276287;22;20545;-83
2022/05/23 02:54:13;;;;;;;6.63;5.50;;;6.90;57.20;;;;;;6275802;22;20683;-82
2022/05/23 02:56:52;;;;;;;7.47;5.83;;;6.90;99.90;;;;;;6279071;22;20474;-86
2022/05/23 02:59:32;;;;;;;7.43;5.20;;;6.90;99.90;;;;;;6304005;22;20147;-84
2022/05/23 03:04:48;;;;;;;8.90;7.37;;;7.00;99.90;;;;;;6304087;22;20151;-86
2022/05/23 03:07:18;;;;;;;6.83;5.73;;;7.00;99.90;;;;;;6298559;22;20202;-85
2022/05/23 03:09:49;;;;;;;7.40;5.63;;;7.10;99.90;;;;;;6303135;22;20184;-83
2022/05/23 03:12:20;;;;;;;5.73;5.13;;;7.10;99.90;;;;;;6298824;22;20140;-88
2022/05/23 03:14:48;;;;;;;6.03;5.30;;;7.10;99.90;;;;;;6302917;22;20155;-86
2022/05/23 03:17:15;;;;;;;5.37;4.87;;;7.10;99.90;;;;;;6284759;22;20178;-82
2022/05/23 03:19:50;;;;;;;5.30;4.80;;;7.10;99.90;;;;;;6294329;22;20210;-87
2022/05/23 03:27:59;;;;;;;5.30;4.80;;;6.90;47.10;;;;;;6292967;22;20150;-83
2022/05/23 03:30:32;;;;;;;5.17;4.50;;;6.90;50.60;;;;;;6282248;22;20241;-86
2022/05/23 03:33:02;;;;;;;5.67;4.90;;;6.90;99.90;;;;;;6283148;22;20651;-86
2022/05/23 03:35:32;;;;;;;5.13;4.40;;;7.00;99.90;;;;;;6282462;22;20156;-85
2022/05/23 03:38:11;;;;;;;6.13;4.70;;;7.10;99.90;;;;;;6282153;22;20586;-86
2022/05/23 03:40:40;;;;;;;5.40;4.90;;;7.10;99.90;;;;;;6281724;22;20160;-83
2022/05/23 03:43:08;;;;;;;7.07;4.90;;;7.20;99.90;;;;;;6275680;22;20187;-82
2022/05/23 03:45:36;;;;;;;5.70;5.10;;;7.30;1.00;;;;;;6282406;22;20215;-83
2022/05/23 03:48:05;;;;;;;6.30;5.60;;;7.60;1.00;;;;;;6275613;22;20171;-83
2022/05/23 03:50:34;;;;;;;22.23;6.13;;;8.20;99.90;;;;;;6274645;22;20649;-84
2022/05/23 03:53:01;;;;;;;27.57;5.27;;;9.50;99.90;;;;;;6275708;22;20166;-84
2022/05/23 03:55:28;;;;;;;3.70;3.27;;;10.70;99.90;;;;;;6275639;22;20225;-83
2022/05/23 03:57:56;;;;;;;3.50;3.00;;;11.90;1.00;;;;;;6275232;22;20163;-84
2022/05/23 04:00:24;;;;;;;4.30;2.73;;;13.10;99.90;;;;;;6275102;22;20074;-82
2022/05/23 04:02:51;;;;;;;5.60;2.80;;;14.20;99.90;;;;;;6275160;22;20224;-81
2022/05/23 04:05:19;;;;;;;3.00;2.63;;;15.30;99.90;;;;;;6275670;22;20170;-81
2022/05/23 04:07:47;;;;;;;3.47;2.80;;;16.40;1.00;;;;;;6275606;22;20226;-82
2022/05/23 04:10:16;;;;;;;4.22;2.58;;;17.40;4.10;;;;;;6275515;22;20222;-82
2022/05/23 04:12:43;;;;;;;5.72;3.22;;;18.40;99.90;;;;;;6275569;22;20164;-82
2022/05/23 04:15:11;;;;;;;4.75;2.97;;;19.20;1.00;;;;;;6275670;22;20225;-82
2022/05/23 04:17:38;;;;;;;;;;;20.00;1.00;;;;;;6275812;22;20528;-83
2022/05/23 04:20:08;;;;;;;;;;;20.70;99.90;;;;;;6275537;22;20037;-83
2022/05/23 04:22:36;;;;;;;3.67;2.78;;;21.50;99.90;;;;;;6275648;22;20256;-82
2022/05/23 04:25:06;;;;;;;3.00;2.70;;;22.20;1.00;;;;;;6275150;22;20232;-83
2022/05/23 04:27:33;;;;;;;7.80;2.80;;;22.90;1.00;;;;;;6275203;22;20592;-82
2022/05/23 04:30:00;;;;;;;;;;;23.40;1.00;;;;;;6275860;22;20052;-82
2022/05/23 04:35:15;;;;;;;5.55;2.80;;;24.50;1.00;;;;;;6278912;22;20565;-84
2022/05/23 04:37:44;;;;;;;4.78;2.65;;;25.20;1.00;;;;;;6280341;22;20159;-86
2022/05/23 04:40:18;;;;;;;3.85;2.60;;;25.90;1.00;;;;;;6300257;22;20067;-88
2022/05/23 04:42:51;;;;;;;3.13;2.30;;;26.50;1.00;;;;;;6299788;22;20191;-88
2022/05/23 04:45:22;;;;;;;;;;;27.00;1.00;;;;;;6300113;22;20019;-88
2022/05/23 04:50:39;;;;;;;;;;;27.60;1.00;;;;;;6300043;22;19961;-91
2022/05/23 04:53:16;;;;;;;;;;;27.90;1.00;;;;;;6309811;22;19915;-86
2022/05/23 04:55:54;;;;;;;;;;;28.10;1.00;;;;;;6331689;22;19950;-89
2022/05/23 04:58:45;;;;;;;;;;;28.10;1.00;;;;;;6331877;22;19911;-85
2022/05/23 05:01:36;;;;;;;;;;;28.10;1.00;;;;;;6330864;22;19918;-87
2022/05/23 05:04:09;;;;;;;4.40;2.15;;;28.30;1.00;;;;;;6148679;23;20620;-86
2022/05/23 05:06:43;;;;;;;4.30;2.28;;;28.70;1.00;;;;;;6232746;22;20243;-87
2022/05/23 05:09:15;;;;;;;3.28;2.20;;;29.20;1.00;;;;;;6324363;22;20179;-86
2022/05/23 05:11:48;;;;;;;7.03;2.50;;;29.40;1.00;;;;;;6316503;22;20189;-90
2022/05/23 05:14:15;;;;;;;4.25;2.40;;;29.50;1.00;;;;;;6307425;22;20147;-83
2022/05/23 05:16:42;;;;;;;9.73;2.63;;;30.00;1.00;;;;;;6307425;22;20151;-84
2022/05/23 05:19:09;;;;;;;3.83;2.58;;;30.40;1.00;;;;;;6308252;22;20147;-85
2022/05/23 05:21:36;;;;;;;;;;;30.80;1.00;;;;;;6307777;22;20065;-84
2022/05/23 05:24:04;;;;;;;7.85;2.42;;;31.20;1.00;;;;;;6307507;22;20173;-84
2022/05/23 05:26:31;;;;;;;10.25;3.25;;;31.40;1.00;;;;;;6307891;22;20159;-85
2022/05/23 05:28:59;;;;;;;4.65;3.30;;;31.60;1.00;;;;;;6307967;22;20159;-88
2022/05/23 05:31:33;;;;;;;3.97;2.55;;;31.90;1.00;;;;;;6332147;22;20163;-86
2022/05/23 05:34:06;;;;;;;9.77;2.60;;;32.20;1.00;;;;;;6330438;22;20139;-88
2022/05/23 05:36:42;;;;;;;5.60;2.45;;;32.30;1.00;;;;;;6331034;22;20149;-89
2022/05/23 05:39:09;;;;;;;3.92;2.40;;;32.50;1.00;;;;;;6320656;22;20159;-87
2022/05/23 05:41:41;;;;;;;2.20;1.90;;;32.60;1.00;;;;;;6317663;22;20186;-86
2022/05/23 05:44:13;;;;;;;2.92;2.20;;;32.40;1.00;;;;;;6315522;22;20162;-83
2022/05/23 05:46:44;;;;;;;3.20;2.20;;;32.20;1.00;;;;;;6309190;22;20159;-89
2022/05/23 05:49:17;;;;;;;3.08;2.03;;;32.20;1.00;;;;;;6307262;22;20159;-85
2022/05/23 05:51:45;;;;;;;65.70;45.33;;;32.30;1.00;;;;;;6307697;22;20151;-85
2022/05/23 05:54:25;;;;;;;4.32;2.80;;;32.60;1.00;;;;;;6326019;22;20301;-89
2022/05/23 05:56:54;;;;;;;2.60;2.35;;;32.90;1.00;;;;;;6329577;22;20162;-85
2022/05/23 05:59:23;;;;;;;2.47;2.08;;;33.10;1.00;;;;;;6314647;22;20161;-85
2022/05/23 06:01:50;;;;;;;4.95;2.47;;;33.40;1.00;;;;;;6310097;22;20182;-84
2022/05/23 06:04:17;;;;;;;7.07;2.50;;;33.50;1.00;;;;;;6308813;22;20227;-85
2022/05/23 06:12:13;;;;;;;3.53;2.83;;;34.00;1.00;;;;;;6310163;22;20200;-83
2022/05/23 06:14:41;;;;;;;3.97;2.58;;;34.20;1.00;;;;;;6314379;22;20159;-83
2022/05/23 06:17:15;;;;;;;3.85;2.20;;;34.40;1.00;;;;;;6312457;22;20158;-87
2022/05/23 06:19:45;;;;;;;2.50;2.30;;;34.90;1.00;;;;;;6312391;22;20151;-85
2022/05/23 06:22:12;;;;;;;4.32;2.60;;;35.10;1.00;;;;;;6310111;22;20194;-84
2022/05/23 06:24:40;;;;;;;5.00;3.10;;;35.30;1.00;;;;;;6307681;22;20167;-87
2022/05/23 06:27:09;;;;;;;3.58;2.88;;;35.50;1.00;;;;;;6307060;22;20216;-85
2022/05/23 06:29:36;;;;;;;2.83;2.53;;;35.80;1.00;;;;;;6309355;22;20166;-85
2022/05/23 06:32:05;;;;;;;4.75;3.00;;;35.80;1.00;;;;;;6308862;22;20678;-84
2022/05/23 06:34:32;;;;;;;3.60;3.30;;;35.80;1.00;;;;;;6311501;22;20725;-84
2022/05/23 06:36:59;;;;;;;4.82;3.45;;;35.80;1.00;;;;;;6309678;22;20457;-85
2022/05/23 06:39:26;;;;;;;5.70;2.72;;;35.60;1.00;;;;;;6307686;22;20601;-85
2022/05/23 06:41:54;;;;;;;3.00;2.45;;;35.70;1.00;;;;;;6306825;22;20187;-85
2022/05/23 06:44:21;;;;;;;6.43;4.88;;;35.80;1.00;;;;;;6308021;22;20220;-85
2022/05/23 06:46:48;;;;;;;5.63;4.22;;;35.60;1.00;;;;;;6310364;22;20158;-87
2022/05/23 06:49:16;;;;;;;9.35;4.20;;;35.50;1.00;;;;;;6310352;22;20158;-83
2022/05/23 06:51:48;;;;;;;5.00;3.25;;;35.60;1.00;;;;;;6310533;22;20231;-85
2022/05/23 06:54:16;;;;;;;6.03;3.00;;;35.50;1.00;;;;;;6308509;22;20154;-84
2022/05/23 06:56:44;;;;;;;12.68;5.03;;;35.40;1.00;;;;;;6306562;22;20608;-83
2022/05/23 06:59:11;;;;;;;6.15;3.20;;;35.40;1.00;;;;;;6308859;22;20151;-85
2022/05/23 07:01:38;;;;;;;5.53;2.90;;;35.40;1.00;;;;;;6308338;22;20265;-86
2022/05/23 07:04:05;;;;;;;3.08;2.78;;;35.40;1.00;;;;;;6308463;22;20218;-84
2022/05/23 07:14:45;;;;;;;4.68;2.40;;;35.50;1.00;;;;;;6315514;22;20224;-86
2022/05/23 07:17:38;;;;;;;5.40;3.10;;;35.60;1.00;;;;;;6315976;22;20224;-87
2022/05/23 07:20:06;;;;;;;8.68;3.10;;;35.90;1.00;;;;;;6315659;22;20212;-86
2022/05/23 07:22:37;;;;;;;4.95;2.70;;;35.90;1.00;;;;;;6309118;22;20227;-89
2022/05/23 07:25:15;;;;;;;4.43;2.63;;;36.20;1.00;;;;;;6316641;22;20474;-87
2022/05/23 07:27:42;;;;;;;6.40;5.80;;;36.40;1.00;;;;;;6317585;22;20211;-85
2022/05/23 07:30:19;;;;;;;4.15;3.38;;;36.60;1.00;;;;;;6321462;22;20193;-88
2022/05/23 07:32:46;;;;;;;3.70;2.30;;;36.90;1.00;;;;;;6316702;22;20212;-84
2022/05/23 07:35:13;;;;;;;2.78;2.20;;;37.00;1.00;;;;;;6322394;22;20176;-85
2022/05/23 07:37:41;;;;;;;4.28;2.50;;;37.10;1.00;;;;;;6319879;22;20163;-85
2022/05/23 07:40:13;;;;;;;3.20;2.60;;;37.10;1.00;;;;;;6320549;22;20212;-88
2022/05/23 07:42:40;;;;;;;4.82;2.15;;;37.20;1.00;;;;;;6312821;22;20683;-85
2022/05/23 07:45:12;;;;;;;4.00;1.83;;;37.30;1.00;;;;;;6321511;22;20158;-87
2022/05/23 07:47:48;;;;;;;2.83;2.08;;;37.20;1.00;;;;;;6316777;22;20147;-87
2022/05/23 07:50:16;;;;;;;3.92;1.52;;;36.70;1.00;;;;;;6314286;22;20151;-84
2022/05/23 08:00:56;;;;;;;2.42;1.70;;;36.50;1.00;;;;;;6322442;22;20791;-85
2022/05/23 08:03:28;;;;;;;2.33;1.65;;;36.80;1.00;;;;;;6323939;22;20674;-89
2022/05/23 08:06:01;;;;;;;3.13;1.20;;;36.90;1.00;;;;;;6318323;22;20236;-90
2022/05/23 08:08:42;;;;;;;2.60;1.33;;;36.80;1.00;;;;;;6320895;22;20162;-85
2022/05/23 08:11:17;;;;;;;2.00;1.60;;;36.40;1.00;;;;;;6317815;22;20139;-87
2022/05/23 08:13:48;;;;;;;2.72;1.20;;;36.10;1.00;;;;;;6321053;22;20671;-85
2022/05/23 08:16:15;;;;;;;1.77;1.10;;;35.80;1.00;;;;;;6325901;22;20147;-86
2022/05/23 08:18:42;;;;;;;4.15;1.60;;;35.70;1.00;;;;;;6318689;22;20158;-84
2022/05/23 08:21:19;;;;;;;2.42;1.42;;;35.40;1.00;;;;;;6326524;22;20163;-87
2022/05/23 08:23:47;;;;;;;1.85;1.45;;;35.30;1.00;;;;;;6317171;22;20150;-83
2022/05/23 08:26:14;;;;;;;4.60;1.73;;;35.40;1.00;;;;;;6319145;22;20167;-85
2022/05/23 08:28:42;;;;;;;3.03;1.65;;;35.50;1.00;;;;;;6314929;22;20472;-85
2022/05/23 08:31:14;;;;;;;1.98;0.98;;;35.80;1.00;;;;;;6319672;22;20162;-86
2022/05/23 08:33:47;;;;;;;2.00;1.23;;;35.80;1.00;;;;;;6319159;22;20151;-89
2022/05/23 08:36:14;;;;;;;2.45;1.40;;;35.60;1.00;;;;;;6321818;22;20182;-88
2022/05/23 08:38:42;;;;;;;2.17;1.10;;;35.10;1.00;;;;;;6322776;22;20163;-83
2022/05/23 08:41:18;;;;;;;2.55;1.20;;;34.80;1.00;;;;;;6322001;22;20150;-86
2022/05/23 08:43:55;;;;;;;2.13;1.15;;;34.60;1.00;;;;;;6323609;22;20534;-85
2022/05/23 08:46:27;;;;;;;2.30;1.60;;;34.60;1.00;;;;;;6318827;22;20154;-85
2022/05/23 08:49:05;;;;;;;4.63;2.50;;;34.60;1.00;;;;;;6324136;22;20162;-88
2022/05/23 08:51:42;;;;;;;3.30;1.95;;;34.10;1.00;;;;;;6320990;22;20154;-87
2022/05/23 08:54:19;;;;;;;2.65;1.98;;;33.60;1.00;;;;;;6322947;22;20150;-86
2022/05/23 08:56:54;;;;;;;2.00;1.80;;;33.40;1.00;;;;;;6316569;22;20151;-86
2022/05/23 08:59:26;;;;;;;3.45;1.70;;;33.30;1.00;;;;;;6310733;22;20158;-83
2022/05/23 09:01:57;;;;;;;2.65;1.70;;;33.20;1.00;;;;;;6316343;22;20620;-82
2022/05/23 09:04:38;;;;;;;2.42;1.80;;;33.00;1.00;;;;;;6314067;22;20208;-83
2022/05/23 09:07:07;;;;;;;2.60;1.85;;;32.90;1.00;;;;;;6310820;22;20248;-87
2022/05/23 09:09:36;;;;;;;2.30;1.80;;;32.90;1.00;;;;;;6309770;22;20257;-83
2022/05/23 09:12:10;;;;;;;3.85;2.00;;;33.00;1.00;;;;;;6308796;22;20151;-83
2022/05/23 09:14:38;;;;;;;1.88;1.70;;;32.50;1.00;;;;;;6307513;22;20456;-83
2022/05/23 09:17:11;;;;;;;2.00;1.80;;;32.50;1.00;;;;;;6314104;22;20212;-86
2022/05/23 09:19:43;;;;;;;3.53;2.20;;;32.50;1.00;;;;;;6308141;22;20159;-84
2022/05/23 09:22:13;;;;;;;2.30;2.10;;;31.90;1.00;;;;;;6307940;22;20167;-83
2022/05/23 09:24:43;;;;;;;2.80;2.00;;;31.70;1.00;;;;;;6309128;22;20597;-84
2022/05/23 09:27:17;;;;;;;6.32;2.40;;;31.30;1.00;;;;;;6309718;22;20147;-82
2022/05/23 09:29:50;;;;;;;3.97;3.63;;;31.30;1.00;;;;;;6310492;22;20230;-83
2022/05/23 09:32:19;;;;;;;3.80;2.17;;;31.00;1.00;;;;;;6308215;22;20201;-89
2022/05/23 09:34:48;;;;;;;41.58;27.52;;;30.50;1.00;;;;;;6307899;22;20163;-83
2022/05/23 09:37:22;;;;;;;4.13;2.00;;;30.10;1.00;;;;;;6309193;22;20156;-87
2022/05/23 09:39:55;;;;;;;3.17;1.90;;;29.60;1.00;;;;;;6308910;22;20170;-84
2022/05/23 09:48:10;;;;;;;3.80;1.80;;;28.30;1.00;;;;;;6321435;22;20258;-84
2022/05/23 09:50:41;;;;;;;2.70;2.15;;;27.80;1.00;;;;;;6318482;22;20163;-85
2022/05/23 09:53:18;;;;;;;12.13;8.50;;;27.30;1.00;;;;;;6316638;22;20166;-84
2022/05/23 09:55:47;;;;;;;9.45;5.07;;;27.00;1.00;;;;;;6313751;22;20500;-83
2022/05/23 09:58:25;;;;;;;4.57;2.45;;;26.80;1.00;;;;;;6313270;22;20202;-83
2022/05/23 10:01:07;;;;;;;4.03;3.22;;;26.60;1.00;;;;;;6309239;22;20234;-84
2022/05/23 10:03:37;;;;;;;6.57;4.15;;;26.30;1.00;;;;;;6315321;22;20171;-82
2022/05/23 10:06:07;;;;;;;2.88;1.77;;;26.30;1.00;;;;;;6311053;22;20183;-88
2022/05/23 10:08:38;;;;;;;8.50;3.75;;;26.30;1.00;;;;;;6321446;22;20140;-84
2022/05/23 10:11:08;;;;;;;1.95;1.77;;;26.10;1.00;;;;;;6314555;22;20522;-84
2022/05/23 10:13:38;;;;;;;3.30;2.17;;;26.00;1.00;;;;;;6312032;22;20167;-86
2022/05/23 10:16:14;;;;;;;6.50;1.58;;;26.00;1.00;;;;;;6313943;22;20144;-83
2022/05/23 10:19:02;;;;;;;4.47;1.63;;;25.90;1.00;;;;;;6309201;22;20209;-87
2022/05/23 10:21:32;;;;;;;4.57;1.75;;;25.70;1.00;;;;;;6306885;22;20505;-81
2022/05/23 10:24:07;;;;;;;3.17;1.85;;;25.40;1.00;;;;;;6306944;22;20151;-82
2022/05/23 10:26:43;;;;;;;3.95;1.75;;;25.20;1.00;;;;;;6307232;22;20154;-81
2022/05/23 10:29:26;;;;;;;3.92;2.05;;;25.00;1.00;;;;;;6309132;22;20151;-85
2022/05/23 10:32:08;;;;;;;1.48;1.33;;;25.00;1.00;;;;;;6309302;22;20155;-88
2022/05/23 10:34:40;;;;;;;2.90;1.52;;;24.80;1.00;;;;;;6314027;22;20140;-82
2022/05/23 10:37:10;;;;;;;3.65;1.60;;;24.80;1.00;;;;;;6315157;22;20442;-83
2022/05/23 10:42:32;;;;;;;5.20;1.70;;;24.60;1.00;;;;;;6313048;22;20288;-82
2022/05/23 10:45:22;;;;;;;2.13;1.80;;;24.60;1.00;;;;;;6307184;22;20200;-82
2022/05/23 10:48:03;;;;;;;2.75;2.13;;;24.50;1.00;;;;;;6306990;22;20226;-83
2022/05/23 10:50:39;;;;;;;1.65;1.50;;;24.40;1.00;;;;;;6308164;22;20139;-82
2022/05/23 10:53:09;;;;;;;;;;;24.30;1.00;;;;;;6318758;22;20062;-87
2022/05/23 10:55:44;;;;;;;3.05;1.55;;;24.20;1.00;;;;;;6313174;22;20149;-88
2022/05/23 10:58:31;;;;;;;4.30;2.10;;;24.10;1.00;;;;;;6319155;22;20155;-83
2022/05/23 11:01:23;;;;;;;5.13;2.40;;;24.10;1.00;;;;;;6316431;22;20165;-85
2022/05/23 11:04:02;;;;;;;5.53;3.85;;;24.20;1.00;;;;;;6314680;22;20217;-83
2022/05/23 11:06:42;;;;;;;5.85;2.15;;;24.20;1.00;;;;;;6317293;22;20189;-83
2022/05/23 11:09:22;;;;;;;3.20;1.70;;;24.10;1.00;;;;;;6310689;22;20194;-87
2022/05/23 11:11:58;;;;;;;2.95;1.77;;;24.00;1.00;;;;;;6314018;22;20147;-83
2022/05/23 11:14:33;;;;;;;3.83;1.80;;;23.80;1.00;;;;;;6309893;22;20146;-82
2022/05/23 11:17:09;;;;;;;2.35;1.98;;;23.80;1.00;;;;;;6318649;22;20154;-84
2022/05/23 11:20:03;;;;;;;2.28;2.00;;;23.80;1.00;;;;;;6313060;22;20204;-85
2022/05/23 11:22:35;;;;;;;2.03;1.83;;;23.80;1.00;;;;;;6313959;22;20513;-88
2022/05/23 11:25:13;;;;;;;2.42;1.67;;;23.80;1.00;;;;;;6308072;22;20151;-83
2022/05/23 11:36:06;;;;;;;3.78;1.80;;;23.40;1.00;;;;;;6309102;22;20173;-83
2022/05/23 11:38:33;;;;;;;3.75;2.10;;;23.20;1.00;;;;;;6315117;22;20186;-82
2022/05/23 11:41:07;;;;;;;3.28;1.88;;;23.30;1.00;;;;;;6309613;22;20237;-83
2022/05/23 11:43:34;;;;;;;4.53;2.42;;;23.30;1.00;;;;;;6311117;22;20193;-87
2022/05/23 11:46:04;;;;;;;2.42;1.77;;;23.30;1.00;;;;;;6313364;22;20216;-83
2022/05/23 11:48:48;;;;;;;2.42;1.77;;;23.30;1.00;;;;;;6311314;22;20517;-86
2022/05/23 11:51:42;;;;;;;3.65;1.90;;;23.20;1.00;;;;;;6313156;22;20448;-83
2022/05/23 11:54:28;;;;;;;2.10;1.90;;;23.00;1.00;;;;;;6281764;22;20223;-82
2022/05/23 11:57:15;;;;;;;2.72;1.60;;;22.80;1.00;;;;;;6314302;22;20609;-86
2022/05/23 12:00:21;;;;;;;3.22;1.98;;;22.80;1.00;;;;;;6308947;22;20132;-82
2022/05/23 12:03:09;;;;;;;6.18;2.00;;;22.80;1.00;;;;;;6312914;22;20179;-83
2022/05/23 12:05:37;;;;;;;2.63;2.00;;;23.00;1.00;;;;;;6310540;22;20166;-82
2022/05/23 12:08:30;;;;;;;3.22;2.30;;;23.20;1.00;;;;;;6311882;22;20171;-87
2022/05/23 12:11:00;;;;;;;4.30;2.30;;;23.20;1.00;;;;;;6306884;22;20655;-82
2022/05/23 12:13:48;;;;;;;2.78;2.03;;;23.30;1.00;;;;;;6312520;22;20052;-83
2022/05/23 12:16:36;;;;;;;2.33;1.80;;;23.40;1.00;;;;;;6310391;22;20186;-83
2022/05/23 12:19:41;;;;;;;4.53;1.90;;;23.40;1.00;;;;;;6314197;22;20197;-85
2022/05/23 12:22:37;;;;;;;3.70;1.83;;;23.30;1.00;;;;;;6298865;22;20163;-82
2022/05/23 12:25:25;;;;;;;;;;;22.90;1.00;;;;;;6308805;22;20155;-82
2022/05/23 12:28:14;;;;;;;;;;;22.80;1.00;;;;;;6312411;22;19950;-82
2022/05/23 12:31:04;;;;;;;2.33;2.10;;;22.70;1.00;;;;;;6299908;22;20042;-86
2022/05/23 12:33:42;;;;;;;5.15;2.33;;;22.80;1.00;;;;;;6312932;22;20154;-83
2022/05/23 12:36:11;;;;;;;3.45;1.70;;;22.70;1.00;;;;;;6311463;22;20147;-83
2022/05/23 12:39:04;;;;;;;15.23;2.78;;;22.80;1.00;;;;;;6313613;22;20220;-85
2022/05/23 12:41:46;;;;;;;4.70;2.13;;;22.80;1.00;;;;;;6312811;22;20204;-86
2022/05/23 12:44:59;;;;;;;3.15;1.77;;;22.80;1.00;;;;;;6313921;22;20232;-81
2022/05/23 12:47:58;;;;;;;3.08;1.80;;;22.80;1.00;;;;;;6311992;22;20173;-84
2022/05/23 12:50:39;;;;;;;5.30;1.70;;;22.90;1.00;;;;;;6312901;22;20147;-82
2022/05/23 12:53:32;;;;;;;2.08;1.88;;;22.80;1.00;;;;;;6317563;22;20155;-86
2022/05/23 12:56:38;;;;;;;2.55;1.80;;;22.80;1.00;;;;;;6299429;22;20541;-83
2022/05/23 12:59:41;;;;;;;2.63;1.83;;;22.80;1.00;;;;;;6317905;22;20147;-83
2022/05/23 13:02:13;;;;;;;3.28;1.92;;;22.80;1.00;;;;;;6309334;22;20231;-83
2022/05/23 13:04:47;;;;;;;3.05;2.00;;;22.90;1.00;;;;;;6309748;22;20472;-83
2022/05/23 13:07:20;;;;;;;2.03;1.70;;;22.80;1.00;;;;;;6317985;22;20191;-84
2022/05/23 13:09:52;;;;;;;4.32;1.73;;;22.70;1.00;;;;;;6313154;22;20503;-83
2022/05/23 13:12:25;;;;;;;2.63;1.67;;;22.60;1.00;;;;;;6311334;22;20161;-83
2022/05/23 13:14:55;;;;;;;3.92;1.70;;;22.70;1.00;;;;;;6312202;22;20151;-82
2022/05/23 13:17:40;;;;;;;3.92;2.05;;;22.70;1.00;;;;;;6309562;22;20163;-81
2022/05/23 13:23:25;;;;;;;3.28;1.77;;;22.70;1.00;;;;;;6310200;22;20215;-83
2022/05/23 13:25:53;;;;;;;2.63;1.60;;;22.60;1.00;;;;;;6309309;22;20220;-82
2022/05/23 13:28:22;;;;;;;2.97;1.67;;;22.50;1.00;;;;;;6311213;22;20666;-83
2022/05/23 13:30:51;;;;;;;2.40;1.40;;;22.50;1.00;;;;;;6310449;22;20636;-82
2022/05/23 13:33:21;;;;;;;2.45;1.48;;;22.40;1.00;;;;;;6315308;22;20171;-84
2022/05/23 13:35:55;;;;;;;5.57;1.80;;;22.40;1.00;;;;;;6309841;22;20163;-81
2022/05/23 13:38:25;;;;;;;2.42;1.58;;;22.50;1.00;;;;;;6309454;22;20264;-81
2022/05/23 13:40:54;;;;;;;1.88;1.63;;;22.50;1.00;;;;;;6310122;22;20191;-81
2022/05/23 13:43:26;;;;;;;5.50;1.60;;;22.50;1.00;;;;;;6309149;22;20179;-82
2022/05/23 13:46:03;;;;;;;3.28;2.20;;;22.50;1.00;;;;;;6309203;22;20151;-82
2022/05/23 13:48:40;;;;;;;1.95;1.80;;;22.40;1.00;;;;;;6316693;22;20143;-83
2022/05/23 13:51:19;;;;;;;3.03;1.50;;;22.40;1.00;;;;;;6308735;22;20204;-84
2022/05/23 13:53:50;;;;;;;1.95;1.77;;;22.40;1.00;;;;;;6307330;22;20216;-83
2022/05/23 13:56:18;;;;;;;2.17;1.80;;;22.40;1.00;;;;;;6307870;22;20556;-84
2022/05/23 14:02:19;;;;;;;2.80;1.30;;;22.20;1.00;;;;;;6304828;22;20601;-88
2022/05/23 14:05:04;;;;;;;3.67;1.77;;;22.10;1.00;;;;;;6307577;22;20175;-84
2022/05/23 14:07:51;;;;;;;2.67;1.70;;;22.10;1.00;;;;;;6308416;22;20202;-87
2022/05/23 14:10:26;;;;;;;4.60;3.38;;;22.20;1.00;;;;;;6318362;22;20601;-85
2022/05/23 14:12:54;;;;;;;2.88;2.00;;;22.30;1.00;;;;;;6308561;22;20496;-81
2022/05/23 14:15:25;;;;;;;2.35;1.70;;;22.30;1.00;;;;;;6311819;22;20163;-83
2022/05/23 14:18:03;;;;;;;10.30;4.03;;;22.30;1.00;;;;;;6318730;22;20147;-87
2022/05/23 14:20:34;;;;;;;4.75;1.70;;;22.40;1.00;;;;;;6308130;22;20212;-81
2022/05/23 14:23:04;;;;;;;1.65;1.38;;;22.40;1.00;;;;;;6307040;22;20465;-81
2022/05/23 14:25:35;;;;;;;2.00;1.75;;;22.40;1.00;;;;;;6307098;22;20159;-81
2022/05/23 14:28:15;;;;;;;4.10;3.70;;;22.40;1.00;;;;;;6307001;22;20151;-81
2022/05/23 14:30:45;;;;;;;6.22;5.63;;;22.30;1.00;;;;;;6315837;22;20202;-84
2022/05/23 14:33:29;;;;;;;3.42;3.10;;;22.30;1.00;;;;;;6320284;22;20608;-85
2022/05/23 14:35:59;;;;;;;3.60;1.90;;;22.30;1.00;;;;;;6317036;22;20249;-81
2022/05/23 14:38:30;;;;;;;2.83;1.58;;;22.30;1.00;;;;;;6312102;22;20155;-81
2022/05/23 14:40:58;;;;;;;1.98;1.42;;;22.30;1.00;;;;;;6311711;22;20151;-81
2022/05/23 14:43:32;;;;;;;4.05;2.15;;;22.30;1.00;;;;;;6311427;22;20187;-81